sensor_id;sensor_type;location;lat;lon;timestamp;P1;durP1;ratioP1;P2;durP2;ratioP2
29548;SDS011;16487;53.094;8.800;2023-08-06T00:00:57;4.47;;;3.43;;
29548;SDS011;16487;53.094;8.800;2023-08-06T00:03:25;5.13;;;3.00;;
29548;SDS011;16487;53.094;8.800;2023-08-06T00:05:52;3.80;;;3.13;;
29548;SDS011;16487;53.094;8.800;2023-08-06T00:08:21;4.10;;;3.00;;
29548;SDS011;16487;53.094;8.800;2023-08-06T00:10:50;8.87;;;3.93;;
29548;SDS011;16487;53.094;8.800;2023-08-06T00:13:18;4.40;;;3.07;;
29548;SDS011;16487;53.094;8.800;2023-08-06T00:18:53;4.13;;;2.57;;
29548;SDS011;16487;53.094;8.800;2023-08-06T00:21:21;6.57;;;3.67;;
29548;SDS011;16487;53.094;8.800;2023-08-06T00:23:50;3.23;;;2.17;;
29548;SDS011;16487;53.094;8.800;2023-08-06T00:26:17;4.60;;;3.30;;
29548;SDS011;16487;53.094;8.800;2023-08-06T00:28:46;4.57;;;3.30;;
29548;SDS011;16487;53.094;8.800;2023-08-06T00:31:14;4.50;;;3.00;;
29548;SDS011;16487;53.094;8.800;2023-08-06T00:33:42;5.77;;;3.00;;
29548;SDS011;16487;53.094;8.800;2023-08-06T00:36:09;4.47;;;3.00;;
29548;SDS011;16487;53.094;8.800;2023-08-06T00:38:37;3.27;;;2.13;;
29548;SDS011;16487;53.094;8.800;2023-08-06T00:41:08;5.87;;;3.40;;
29548;SDS011;16487;53.094;8.800;2023-08-06T00:43:37;5.30;;;3.00;;
29548;SDS011;16487;53.094;8.800;2023-08-06T00:46:07;2.43;;;2.10;;
29548;SDS011;16487;53.094;8.800;2023-08-06T00:48:34;4.07;;;3.07;;
29548;SDS011;16487;53.094;8.800;2023-08-06T00:51:02;4.10;;;2.77;;
29548;SDS011;16487;53.094;8.800;2023-08-06T00:53:30;3.67;;;3.00;;
29548;SDS011;16487;53.094;8.800;2023-08-06T00:55:59;5.20;;;2.80;;
29548;SDS011;16487;53.094;8.800;2023-08-06T00:58:29;3.80;;;3.33;;
29548;SDS011;16487;53.094;8.800;2023-08-06T01:00:57;4.03;;;3.07;;
29548;SDS011;16487;53.094;8.800;2023-08-06T01:03:25;5.70;;;3.50;;
29548;SDS011;16487;53.094;8.800;2023-08-06T01:05:52;6.03;;;2.73;;
29548;SDS011;16487;53.094;8.800;2023-08-06T01:08:25;5.53;;;3.40;;
29548;SDS011;16487;53.094;8.800;2023-08-06T01:11:01;5.17;;;3.07;;
29548;SDS011;16487;53.094;8.800;2023-08-06T01:13:38;5.43;;;4.20;;
29548;SDS011;16487;53.094;8.800;2023-08-06T01:16:14;2.43;;;2.23;;
29548;SDS011;16487;53.094;8.800;2023-08-06T01:18:42;5.40;;;3.50;;
29548;SDS011;16487;53.094;8.800;2023-08-06T01:21:12;7.00;;;3.73;;
29548;SDS011;16487;53.094;8.800;2023-08-06T01:23:39;6.40;;;3.87;;
29548;SDS011;16487;53.094;8.800;2023-08-06T01:26:10;6.50;;;3.67;;
29548;SDS011;16487;53.094;8.800;2023-08-06T01:28:44;6.00;;;3.43;;
29548;SDS011;16487;53.094;8.800;2023-08-06T01:31:18;4.20;;;3.00;;
29548;SDS011;16487;53.094;8.800;2023-08-06T01:33:49;8.47;;;4.43;;
29548;SDS011;16487;53.094;8.800;2023-08-06T01:36:18;5.50;;;3.70;;
29548;SDS011;16487;53.094;8.800;2023-08-06T01:38:47;8.17;;;4.37;;
29548;SDS011;16487;53.094;8.800;2023-08-06T01:41:14;7.17;;;3.63;;
29548;SDS011;16487;53.094;8.800;2023-08-06T01:43:42;5.43;;;3.93;;
29548;SDS011;16487;53.094;8.800;2023-08-06T01:46:09;6.73;;;3.57;;
29548;SDS011;16487;53.094;8.800;2023-08-06T01:48:36;6.63;;;3.47;;
29548;SDS011;16487;53.094;8.800;2023-08-06T01:51:04;4.90;;;3.87;;
29548;SDS011;16487;53.094;8.800;2023-08-06T01:53:32;7.07;;;4.60;;
29548;SDS011;16487;53.094;8.800;2023-08-06T01:56:00;4.43;;;3.67;;
29548;SDS011;16487;53.094;8.800;2023-08-06T01:58:28;3.33;;;3.03;;
29548;SDS011;16487;53.094;8.800;2023-08-06T02:00:56;5.80;;;3.30;;
29548;SDS011;16487;53.094;8.800;2023-08-06T02:03:24;3.90;;;3.07;;
29548;SDS011;16487;53.094;8.800;2023-08-06T02:05:51;4.80;;;3.30;;
29548;SDS011;16487;53.094;8.800;2023-08-06T02:08:21;6.30;;;3.27;;
29548;SDS011;16487;53.094;8.800;2023-08-06T02:10:50;3.53;;;2.57;;
29548;SDS011;16487;53.094;8.800;2023-08-06T02:13:17;5.13;;;3.57;;
29548;SDS011;16487;53.094;8.800;2023-08-06T02:15:45;4.77;;;3.00;;
29548;SDS011;16487;53.094;8.800;2023-08-06T02:18:13;6.50;;;4.00;;
29548;SDS011;16487;53.094;8.800;2023-08-06T02:20:40;4.90;;;4.10;;
29548;SDS011;16487;53.094;8.800;2023-08-06T02:23:08;5.93;;;4.27;;
29548;SDS011;16487;53.094;8.800;2023-08-06T02:25:39;12.13;;;4.03;;
29548;SDS011;16487;53.094;8.800;2023-08-06T02:28:07;4.70;;;3.97;;
29548;SDS011;16487;53.094;8.800;2023-08-06T02:30:34;6.90;;;3.60;;
29548;SDS011;16487;53.094;8.800;2023-08-06T02:33:02;6.33;;;3.90;;
29548;SDS011;16487;53.094;8.800;2023-08-06T02:35:29;7.00;;;3.63;;
29548;SDS011;16487;53.094;8.800;2023-08-06T02:37:56;6.37;;;3.47;;
29548;SDS011;16487;53.094;8.800;2023-08-06T02:40:23;5.57;;;3.97;;
29548;SDS011;16487;53.094;8.800;2023-08-06T02:42:50;7.27;;;3.87;;
29548;SDS011;16487;53.094;8.800;2023-08-06T02:45:19;7.43;;;3.70;;
29548;SDS011;16487;53.094;8.800;2023-08-06T02:47:49;7.00;;;2.80;;
29548;SDS011;16487;53.094;8.800;2023-08-06T02:50:18;7.97;;;4.10;;
29548;SDS011;16487;53.094;8.800;2023-08-06T02:52:45;6.80;;;4.47;;
29548;SDS011;16487;53.094;8.800;2023-08-06T02:55:13;6.83;;;3.50;;
29548;SDS011;16487;53.094;8.800;2023-08-06T02:57:44;5.80;;;3.80;;
29548;SDS011;16487;53.094;8.800;2023-08-06T03:00:11;8.20;;;4.03;;
29548;SDS011;16487;53.094;8.800;2023-08-06T03:02:40;4.53;;;3.17;;
29548;SDS011;16487;53.094;8.800;2023-08-06T03:05:18;6.47;;;4.20;;
29548;SDS011;16487;53.094;8.800;2023-08-06T03:07:47;5.27;;;3.87;;
29548;SDS011;16487;53.094;8.800;2023-08-06T03:10:21;5.20;;;3.43;;
29548;SDS011;16487;53.094;8.800;2023-08-06T03:12:51;4.80;;;3.33;;
29548;SDS011;16487;53.094;8.800;2023-08-06T03:15:21;7.10;;;4.10;;
29548;SDS011;16487;53.094;8.800;2023-08-06T03:17:51;6.90;;;3.57;;
29548;SDS011;16487;53.094;8.800;2023-08-06T03:20:20;5.57;;;4.03;;
29548;SDS011;16487;53.094;8.800;2023-08-06T03:22:48;6.63;;;4.23;;
29548;SDS011;16487;53.094;8.800;2023-08-06T03:25:16;6.60;;;3.20;;
29548;SDS011;16487;53.094;8.800;2023-08-06T03:27:46;4.73;;;3.90;;
29548;SDS011;16487;53.094;8.800;2023-08-06T03:30:17;5.77;;;3.57;;
29548;SDS011;16487;53.094;8.800;2023-08-06T03:32:44;9.03;;;4.57;;
29548;SDS011;16487;53.094;8.800;2023-08-06T03:35:16;4.10;;;2.97;;
29548;SDS011;16487;53.094;8.800;2023-08-06T03:37:44;5.87;;;4.07;;
29548;SDS011;16487;53.094;8.800;2023-08-06T03:40:11;6.57;;;4.20;;
29548;SDS011;16487;53.094;8.800;2023-08-06T03:42:38;5.30;;;4.07;;
29548;SDS011;16487;53.094;8.800;2023-08-06T03:45:06;6.63;;;4.13;;
29548;SDS011;16487;53.094;8.800;2023-08-06T03:47:34;7.50;;;4.47;;
29548;SDS011;16487;53.094;8.800;2023-08-06T03:50:02;9.13;;;4.63;;
29548;SDS011;16487;53.094;8.800;2023-08-06T03:52:33;7.03;;;4.80;;
29548;SDS011;16487;53.094;8.800;2023-08-06T03:55:00;6.03;;;4.27;;
29548;SDS011;16487;53.094;8.800;2023-08-06T03:57:27;7.27;;;4.93;;
29548;SDS011;16487;53.094;8.800;2023-08-06T03:59:55;8.77;;;4.03;;
29548;SDS011;16487;53.094;8.800;2023-08-06T04:02:25;5.70;;;4.87;;
29548;SDS011;16487;53.094;8.800;2023-08-06T04:04:53;7.30;;;5.10;;
29548;SDS011;16487;53.094;8.800;2023-08-06T04:07:21;9.03;;;5.10;;
29548;SDS011;16487;53.094;8.800;2023-08-06T04:09:53;6.03;;;4.63;;
29548;SDS011;16487;53.094;8.800;2023-08-06T04:12:21;8.77;;;5.07;;
29548;SDS011;16487;53.094;8.800;2023-08-06T04:14:49;8.60;;;5.23;;
29548;SDS011;16487;53.094;8.800;2023-08-06T04:17:17;8.33;;;5.07;;
29548;SDS011;16487;53.094;8.800;2023-08-06T04:19:44;9.80;;;6.03;;
29548;SDS011;16487;53.094;8.800;2023-08-06T04:22:11;11.37;;;6.60;;
29548;SDS011;16487;53.094;8.800;2023-08-06T04:24:38;7.30;;;4.47;;
29548;SDS011;16487;53.094;8.800;2023-08-06T04:27:07;10.70;;;6.10;;
29548;SDS011;16487;53.094;8.800;2023-08-06T04:29:35;14.10;;;5.50;;
29548;SDS011;16487;53.094;8.800;2023-08-06T04:32:03;12.33;;;6.67;;
29548;SDS011;16487;53.094;8.800;2023-08-06T04:34:32;9.93;;;5.20;;
29548;SDS011;16487;53.094;8.800;2023-08-06T04:37:00;9.40;;;5.20;;
29548;SDS011;16487;53.094;8.800;2023-08-06T04:39:27;8.87;;;5.80;;
29548;SDS011;16487;53.094;8.800;2023-08-06T04:41:55;11.40;;;6.10;;
29548;SDS011;16487;53.094;8.800;2023-08-06T04:44:24;7.93;;;5.43;;
29548;SDS011;16487;53.094;8.800;2023-08-06T04:46:51;8.30;;;5.30;;
29548;SDS011;16487;53.094;8.800;2023-08-06T04:49:19;10.57;;;5.87;;
29548;SDS011;16487;53.094;8.800;2023-08-06T04:51:47;10.70;;;5.67;;
29548;SDS011;16487;53.094;8.800;2023-08-06T04:54:14;10.47;;;5.93;;
29548;SDS011;16487;53.094;8.800;2023-08-06T04:56:42;11.37;;;5.87;;
29548;SDS011;16487;53.094;8.800;2023-08-06T04:59:09;10.57;;;7.40;;
29548;SDS011;16487;53.094;8.800;2023-08-06T05:01:38;10.13;;;5.87;;
29548;SDS011;16487;53.094;8.800;2023-08-06T05:04:05;9.43;;;6.43;;
29548;SDS011;16487;53.094;8.800;2023-08-06T05:06:32;9.37;;;6.80;;
29548;SDS011;16487;53.094;8.800;2023-08-06T05:08:59;9.70;;;6.00;;
29548;SDS011;16487;53.094;8.800;2023-08-06T05:11:26;8.00;;;5.53;;
29548;SDS011;16487;53.094;8.800;2023-08-06T05:13:53;10.33;;;5.80;;
29548;SDS011;16487;53.094;8.800;2023-08-06T05:16:21;51.37;;;18.00;;
29548;SDS011;16487;53.094;8.800;2023-08-06T05:18:49;13.07;;;7.53;;
29548;SDS011;16487;53.094;8.800;2023-08-06T05:21:16;9.77;;;6.23;;
29548;SDS011;16487;53.094;8.800;2023-08-06T05:23:44;9.13;;;5.50;;
29548;SDS011;16487;53.094;8.800;2023-08-06T05:26:11;8.90;;;6.30;;
29548;SDS011;16487;53.094;8.800;2023-08-06T05:28:38;7.93;;;5.50;;
29548;SDS011;16487;53.094;8.800;2023-08-06T05:31:05;10.70;;;6.83;;
29548;SDS011;16487;53.094;8.800;2023-08-06T05:33:35;13.23;;;6.10;;
29548;SDS011;16487;53.094;8.800;2023-08-06T05:36:04;8.03;;;6.17;;
29548;SDS011;16487;53.094;8.800;2023-08-06T05:38:31;8.77;;;5.40;;
29548;SDS011;16487;53.094;8.800;2023-08-06T05:40:59;7.73;;;5.43;;
29548;SDS011;16487;53.094;8.800;2023-08-06T05:43:26;7.87;;;5.70;;
29548;SDS011;16487;53.094;8.800;2023-08-06T05:45:53;7.47;;;4.67;;
29548;SDS011;16487;53.094;8.800;2023-08-06T05:48:20;10.67;;;5.80;;
29548;SDS011;16487;53.094;8.800;2023-08-06T05:50:47;11.90;;;6.60;;
29548;SDS011;16487;53.094;8.800;2023-08-06T05:53:16;8.33;;;5.73;;
29548;SDS011;16487;53.094;8.800;2023-08-06T05:55:43;6.97;;;4.73;;
29548;SDS011;16487;53.094;8.800;2023-08-06T05:58:11;7.27;;;5.10;;
29548;SDS011;16487;53.094;8.800;2023-08-06T06:00:39;6.47;;;5.03;;
29548;SDS011;16487;53.094;8.800;2023-08-06T06:03:06;5.70;;;4.47;;
29548;SDS011;16487;53.094;8.800;2023-08-06T06:05:33;7.60;;;5.17;;
29548;SDS011;16487;53.094;8.800;2023-08-06T06:08:01;6.53;;;4.70;;
29548;SDS011;16487;53.094;8.800;2023-08-06T06:10:30;5.77;;;5.17;;
29548;SDS011;16487;53.094;8.800;2023-08-06T06:12:57;9.40;;;4.90;;
29548;SDS011;16487;53.094;8.800;2023-08-06T06:15:24;7.13;;;5.40;;
29548;SDS011;16487;53.094;8.800;2023-08-06T06:17:51;8.37;;;5.90;;
29548;SDS011;16487;53.094;8.800;2023-08-06T06:20:19;7.83;;;5.03;;
29548;SDS011;16487;53.094;8.800;2023-08-06T06:22:46;5.27;;;4.53;;
29548;SDS011;16487;53.094;8.800;2023-08-06T06:25:14;7.00;;;5.20;;
29548;SDS011;16487;53.094;8.800;2023-08-06T06:27:42;8.00;;;4.60;;
29548;SDS011;16487;53.094;8.800;2023-08-06T06:30:10;4.50;;;3.80;;
29548;SDS011;16487;53.094;8.800;2023-08-06T06:32:37;4.63;;;3.83;;
29548;SDS011;16487;53.094;8.800;2023-08-06T06:35:05;5.47;;;4.20;;
29548;SDS011;16487;53.094;8.800;2023-08-06T06:37:33;4.67;;;3.87;;
29548;SDS011;16487;53.094;8.800;2023-08-06T06:40:00;4.70;;;4.17;;
29548;SDS011;16487;53.094;8.800;2023-08-06T06:42:27;4.70;;;3.57;;
29548;SDS011;16487;53.094;8.800;2023-08-06T06:45:04;4.60;;;3.40;;
29548;SDS011;16487;53.094;8.800;2023-08-06T06:47:32;5.50;;;3.90;;
29548;SDS011;16487;53.094;8.800;2023-08-06T06:49:59;5.77;;;4.50;;
29548;SDS011;16487;53.094;8.800;2023-08-06T06:52:26;4.03;;;3.43;;
29548;SDS011;16487;53.094;8.800;2023-08-06T06:54:53;4.57;;;3.57;;
29548;SDS011;16487;53.094;8.800;2023-08-06T06:57:20;7.03;;;4.30;;
29548;SDS011;16487;53.094;8.800;2023-08-06T06:59:48;5.30;;;3.80;;
29548;SDS011;16487;53.094;8.800;2023-08-06T07:02:16;4.57;;;4.10;;
29548;SDS011;16487;53.094;8.800;2023-08-06T07:04:44;3.93;;;3.30;;
29548;SDS011;16487;53.094;8.800;2023-08-06T07:07:11;4.67;;;4.27;;
29548;SDS011;16487;53.094;8.800;2023-08-06T07:09:38;4.30;;;3.67;;
29548;SDS011;16487;53.094;8.800;2023-08-06T07:12:07;4.80;;;4.30;;
29548;SDS011;16487;53.094;8.800;2023-08-06T07:14:34;3.43;;;2.90;;
29548;SDS011;16487;53.094;8.800;2023-08-06T07:17:01;3.67;;;3.17;;
29548;SDS011;16487;53.094;8.800;2023-08-06T07:19:30;3.70;;;3.40;;
29548;SDS011;16487;53.094;8.800;2023-08-06T07:21:57;6.37;;;3.53;;
29548;SDS011;16487;53.094;8.800;2023-08-06T07:24:26;19.43;;;10.87;;
29548;SDS011;16487;53.094;8.800;2023-08-06T07:26:55;4.93;;;3.40;;
29548;SDS011;16487;53.094;8.800;2023-08-06T07:32:31;4.80;;;3.47;;
29548;SDS011;16487;53.094;8.800;2023-08-06T07:35:00;5.90;;;5.07;;
29548;SDS011;16487;53.094;8.800;2023-08-06T07:37:28;3.63;;;3.33;;
29548;SDS011;16487;53.094;8.800;2023-08-06T07:39:55;7.47;;;5.30;;
29548;SDS011;16487;53.094;8.800;2023-08-06T07:42:24;3.30;;;3.00;;
29548;SDS011;16487;53.094;8.800;2023-08-06T07:44:52;4.33;;;3.33;;
29548;SDS011;16487;53.094;8.800;2023-08-06T07:47:22;3.00;;;2.70;;
29548;SDS011;16487;53.094;8.800;2023-08-06T07:49:50;3.27;;;2.60;;
29548;SDS011;16487;53.094;8.800;2023-08-06T07:56:13;3.80;;;3.40;;
29548;SDS011;16487;53.094;8.800;2023-08-06T07:58:41;3.20;;;2.90;;
29548;SDS011;16487;53.094;8.800;2023-08-06T08:01:09;3.57;;;3.27;;
29548;SDS011;16487;53.094;8.800;2023-08-06T08:03:39;3.80;;;2.67;;
29548;SDS011;16487;53.094;8.800;2023-08-06T08:06:07;4.50;;;3.13;;
29548;SDS011;16487;53.094;8.800;2023-08-06T08:08:35;2.97;;;2.60;;
29548;SDS011;16487;53.094;8.800;2023-08-06T08:11:02;5.47;;;3.87;;
29548;SDS011;16487;53.094;8.800;2023-08-06T08:13:31;3.70;;;2.63;;
29548;SDS011;16487;53.094;8.800;2023-08-06T08:16:01;3.37;;;2.80;;
29548;SDS011;16487;53.094;8.800;2023-08-06T08:18:31;3.17;;;2.87;;
29548;SDS011;16487;53.094;8.800;2023-08-06T08:21:00;3.47;;;3.00;;
29548;SDS011;16487;53.094;8.800;2023-08-06T08:23:29;2.90;;;2.67;;
29548;SDS011;16487;53.094;8.800;2023-08-06T08:25:56;3.30;;;3.00;;
29548;SDS011;16487;53.094;8.800;2023-08-06T08:28:25;3.37;;;3.07;;
29548;SDS011;16487;53.094;8.800;2023-08-06T08:30:54;3.00;;;2.67;;
29548;SDS011;16487;53.094;8.800;2023-08-06T08:33:21;5.07;;;3.13;;
29548;SDS011;16487;53.094;8.800;2023-08-06T08:35:48;8.03;;;5.00;;
29548;SDS011;16487;53.094;8.800;2023-08-06T08:38:27;8.30;;;5.83;;
29548;SDS011;16487;53.094;8.800;2023-08-06T08:40:54;5.20;;;4.70;;
29548;SDS011;16487;53.094;8.800;2023-08-06T08:43:22;4.83;;;4.37;;
29548;SDS011;16487;53.094;8.800;2023-08-06T08:45:50;5.17;;;3.87;;
29548;SDS011;16487;53.094;8.800;2023-08-06T08:48:20;4.50;;;3.67;;
29548;SDS011;16487;53.094;8.800;2023-08-06T08:50:48;4.27;;;3.60;;
29548;SDS011;16487;53.094;8.800;2023-08-06T08:53:17;5.50;;;4.30;;
29548;SDS011;16487;53.094;8.800;2023-08-06T08:55:46;5.60;;;4.43;;
29548;SDS011;16487;53.094;8.800;2023-08-06T08:58:15;7.23;;;4.90;;
29548;SDS011;16487;53.094;8.800;2023-08-06T09:00:46;6.83;;;4.40;;
29548;SDS011;16487;53.094;8.800;2023-08-06T09:03:13;7.60;;;4.97;;
29548;SDS011;16487;53.094;8.800;2023-08-06T09:05:43;5.67;;;4.63;;
29548;SDS011;16487;53.094;8.800;2023-08-06T09:08:12;4.67;;;3.50;;
29548;SDS011;16487;53.094;8.800;2023-08-06T09:10:44;3.97;;;3.63;;
29548;SDS011;16487;53.094;8.800;2023-08-06T09:13:15;9.53;;;6.20;;
29548;SDS011;16487;53.094;8.800;2023-08-06T09:15:43;5.27;;;4.30;;
29548;SDS011;16487;53.094;8.800;2023-08-06T09:18:11;5.10;;;3.83;;
29548;SDS011;16487;53.094;8.800;2023-08-06T09:20:43;6.13;;;3.00;;
29548;SDS011;16487;53.094;8.800;2023-08-06T09:23:11;5.00;;;3.73;;
29548;SDS011;16487;53.094;8.800;2023-08-06T09:25:38;7.00;;;4.47;;
29548;SDS011;16487;53.094;8.800;2023-08-06T09:28:06;6.83;;;3.77;;
29548;SDS011;16487;53.094;8.800;2023-08-06T09:30:35;3.73;;;3.07;;
29548;SDS011;16487;53.094;8.800;2023-08-06T09:33:03;5.63;;;3.60;;
29548;SDS011;16487;53.094;8.800;2023-08-06T09:35:36;4.07;;;2.93;;
29548;SDS011;16487;53.094;8.800;2023-08-06T09:38:06;3.90;;;3.27;;
29548;SDS011;16487;53.094;8.800;2023-08-06T09:40:34;2.57;;;2.37;;
29548;SDS011;16487;53.094;8.800;2023-08-06T09:43:02;2.80;;;2.60;;
29548;SDS011;16487;53.094;8.800;2023-08-06T09:45:33;3.10;;;2.53;;
29548;SDS011;16487;53.094;8.800;2023-08-06T09:48:02;10.47;;;5.33;;
29548;SDS011;16487;53.094;8.800;2023-08-06T09:50:32;2.47;;;2.27;;
29548;SDS011;16487;53.094;8.800;2023-08-06T09:53:00;2.33;;;2.10;;
29548;SDS011;16487;53.094;8.800;2023-08-06T09:55:30;2.23;;;2.03;;
29548;SDS011;16487;53.094;8.800;2023-08-06T09:57:58;1.80;;;1.70;;
29548;SDS011;16487;53.094;8.800;2023-08-06T10:00:26;2.53;;;2.33;;
29548;SDS011;16487;53.094;8.800;2023-08-06T10:02:54;2.77;;;2.50;;
29548;SDS011;16487;53.094;8.800;2023-08-06T10:05:26;4.90;;;3.40;;
29548;SDS011;16487;53.094;8.800;2023-08-06T10:07:54;1.90;;;1.80;;
29548;SDS011;16487;53.094;8.800;2023-08-06T10:10:23;1.70;;;1.60;;
29548;SDS011;16487;53.094;8.800;2023-08-06T10:12:54;2.10;;;1.90;;
29548;SDS011;16487;53.094;8.800;2023-08-06T10:15:25;2.57;;;2.30;;
29548;SDS011;16487;53.094;8.800;2023-08-06T10:17:54;2.20;;;2.00;;
29548;SDS011;16487;53.094;8.800;2023-08-06T10:20:25;1.87;;;1.77;;
29548;SDS011;16487;53.094;8.800;2023-08-06T10:22:59;2.13;;;2.00;;
29548;SDS011;16487;53.094;8.800;2023-08-06T10:25:32;4.97;;;2.90;;
29548;SDS011;16487;53.094;8.800;2023-08-06T10:28:02;1.77;;;1.67;;
29548;SDS011;16487;53.094;8.800;2023-08-06T10:30:35;1.70;;;1.57;;
29548;SDS011;16487;53.094;8.800;2023-08-06T10:33:08;2.33;;;1.70;;
29548;SDS011;16487;53.094;8.800;2023-08-06T10:35:40;2.20;;;2.00;;
29548;SDS011;16487;53.094;8.800;2023-08-06T10:38:09;1.70;;;1.60;;
29548;SDS011;16487;53.094;8.800;2023-08-06T10:40:37;1.60;;;1.50;;
29548;SDS011;16487;53.094;8.800;2023-08-06T10:43:08;2.07;;;1.97;;
29548;SDS011;16487;53.094;8.800;2023-08-06T10:45:53;1.80;;;1.70;;
29548;SDS011;16487;53.094;8.800;2023-08-06T10:48:28;1.80;;;1.70;;
29548;SDS011;16487;53.094;8.800;2023-08-06T10:50:56;2.17;;;2.00;;
29548;SDS011;16487;53.094;8.800;2023-08-06T10:53:23;1.50;;;1.40;;
29548;SDS011;16487;53.094;8.800;2023-08-06T10:55:53;4.10;;;2.43;;
29548;SDS011;16487;53.094;8.800;2023-08-06T10:58:21;2.13;;;1.90;;
29548;SDS011;16487;53.094;8.800;2023-08-06T11:00:48;2.10;;;2.00;;
29548;SDS011;16487;53.094;8.800;2023-08-06T11:03:16;2.20;;;2.10;;
29548;SDS011;16487;53.094;8.800;2023-08-06T11:05:48;2.23;;;2.03;;
29548;SDS011;16487;53.094;8.800;2023-08-06T11:08:22;3.83;;;3.47;;
29548;SDS011;16487;53.094;8.800;2023-08-06T11:10:51;3.43;;;3.13;;
29548;SDS011;16487;53.094;8.800;2023-08-06T11:13:31;1.90;;;1.80;;
29548;SDS011;16487;53.094;8.800;2023-08-06T11:15:59;2.60;;;2.40;;
29548;SDS011;16487;53.094;8.800;2023-08-06T11:18:27;1.80;;;1.70;;
29548;SDS011;16487;53.094;8.800;2023-08-06T11:20:58;1.80;;;1.67;;
29548;SDS011;16487;53.094;8.800;2023-08-06T11:23:30;2.97;;;2.67;;
29548;SDS011;16487;53.094;8.800;2023-08-06T11:25:57;2.53;;;1.97;;
29548;SDS011;16487;53.094;8.800;2023-08-06T11:28:25;2.30;;;2.20;;
29548;SDS011;16487;53.094;8.800;2023-08-06T11:30:55;2.10;;;2.00;;
29548;SDS011;16487;53.094;8.800;2023-08-06T11:33:23;2.10;;;2.00;;
29548;SDS011;16487;53.094;8.800;2023-08-06T11:35:50;1.90;;;1.80;;
29548;SDS011;16487;53.094;8.800;2023-08-06T11:38:18;1.47;;;1.47;;
29548;SDS011;16487;53.094;8.800;2023-08-06T11:40:45;1.93;;;1.83;;
29548;SDS011;16487;53.094;8.800;2023-08-06T11:43:13;1.70;;;1.60;;
29548;SDS011;16487;53.094;8.800;2023-08-06T11:45:40;1.93;;;1.83;;
29548;SDS011;16487;53.094;8.800;2023-08-06T11:48:09;2.40;;;1.93;;
29548;SDS011;16487;53.094;8.800;2023-08-06T11:50:36;1.50;;;1.47;;
29548;SDS011;16487;53.094;8.800;2023-08-06T11:53:04;2.10;;;2.00;;
29548;SDS011;16487;53.094;8.800;2023-08-06T11:55:32;1.57;;;1.47;;
29548;SDS011;16487;53.094;8.800;2023-08-06T11:58:02;1.40;;;1.40;;
29548;SDS011;16487;53.094;8.800;2023-08-06T12:00:30;2.10;;;1.57;;
29548;SDS011;16487;53.094;8.800;2023-08-06T12:02:57;1.90;;;1.80;;
29548;SDS011;16487;53.094;8.800;2023-08-06T12:05:30;2.00;;;1.90;;
29548;SDS011;16487;53.094;8.800;2023-08-06T12:07:58;1.80;;;1.70;;
29548;SDS011;16487;53.094;8.800;2023-08-06T12:10:27;1.87;;;1.77;;
29548;SDS011;16487;53.094;8.800;2023-08-06T12:12:55;2.07;;;1.97;;
29548;SDS011;16487;53.094;8.800;2023-08-06T12:15:22;1.90;;;1.80;;
29548;SDS011;16487;53.094;8.800;2023-08-06T12:17:50;1.57;;;1.47;;
29548;SDS011;16487;53.094;8.800;2023-08-06T12:20:17;1.80;;;1.70;;
29548;SDS011;16487;53.094;8.800;2023-08-06T12:22:45;2.40;;;2.30;;
29548;SDS011;16487;53.094;8.800;2023-08-06T12:25:13;2.10;;;2.00;;
29548;SDS011;16487;53.094;8.800;2023-08-06T12:27:41;2.00;;;1.90;;
29548;SDS011;16487;53.094;8.800;2023-08-06T12:30:10;2.07;;;1.97;;
29548;SDS011;16487;53.094;8.800;2023-08-06T12:32:38;1.97;;;1.87;;
29548;SDS011;16487;53.094;8.800;2023-08-06T12:35:07;1.77;;;1.67;;
29548;SDS011;16487;53.094;8.800;2023-08-06T12:37:35;1.83;;;1.73;;
29548;SDS011;16487;53.094;8.800;2023-08-06T12:40:04;1.70;;;1.60;;
29548;SDS011;16487;53.094;8.800;2023-08-06T12:42:52;1.80;;;1.70;;
29548;SDS011;16487;53.094;8.800;2023-08-06T12:45:20;1.80;;;1.70;;
29548;SDS011;16487;53.094;8.800;2023-08-06T12:47:47;1.80;;;1.70;;
29548;SDS011;16487;53.094;8.800;2023-08-06T12:50:14;1.70;;;1.60;;
29548;SDS011;16487;53.094;8.800;2023-08-06T12:52:41;1.37;;;1.33;;
29548;SDS011;16487;53.094;8.800;2023-08-06T12:55:10;1.97;;;1.87;;
29548;SDS011;16487;53.094;8.800;2023-08-06T12:57:37;2.07;;;1.87;;
29548;SDS011;16487;53.094;8.800;2023-08-06T13:00:23;1.83;;;1.73;;
29548;SDS011;16487;53.094;8.800;2023-08-06T13:02:51;1.87;;;1.77;;
29548;SDS011;16487;53.094;8.800;2023-08-06T13:05:18;1.73;;;1.63;;
29548;SDS011;16487;53.094;8.800;2023-08-06T13:07:45;1.90;;;1.80;;
29548;SDS011;16487;53.094;8.800;2023-08-06T13:10:14;1.70;;;1.60;;
29548;SDS011;16487;53.094;8.800;2023-08-06T13:12:41;1.80;;;1.70;;
29548;SDS011;16487;53.094;8.800;2023-08-06T13:15:08;1.80;;;1.70;;
29548;SDS011;16487;53.094;8.800;2023-08-06T13:17:36;1.67;;;1.57;;
29548;SDS011;16487;53.094;8.800;2023-08-06T13:20:03;2.23;;;1.73;;
29548;SDS011;16487;53.094;8.800;2023-08-06T13:22:31;2.37;;;2.23;;
29548;SDS011;16487;53.094;8.800;2023-08-06T13:24:59;1.70;;;1.60;;
29548;SDS011;16487;53.094;8.800;2023-08-06T13:27:27;1.70;;;1.60;;
29548;SDS011;16487;53.094;8.800;2023-08-06T13:29:54;2.00;;;1.90;;
29548;SDS011;16487;53.094;8.800;2023-08-06T13:32:22;1.90;;;1.80;;
29548;SDS011;16487;53.094;8.800;2023-08-06T13:34:49;2.50;;;2.30;;
29548;SDS011;16487;53.094;8.800;2023-08-06T13:37:16;1.97;;;1.87;;
29548;SDS011;16487;53.094;8.800;2023-08-06T13:39:43;2.20;;;2.10;;
29548;SDS011;16487;53.094;8.800;2023-08-06T13:42:11;2.00;;;1.90;;
29548;SDS011;16487;53.094;8.800;2023-08-06T13:44:39;2.63;;;2.43;;
29548;SDS011;16487;53.094;8.800;2023-08-06T13:47:06;1.90;;;1.80;;
29548;SDS011;16487;53.094;8.800;2023-08-06T13:49:33;1.97;;;1.87;;
29548;SDS011;16487;53.094;8.800;2023-08-06T13:52:00;1.87;;;1.77;;
29548;SDS011;16487;53.094;8.800;2023-08-06T13:54:45;2.10;;;2.00;;
29548;SDS011;16487;53.094;8.800;2023-08-06T13:57:13;2.20;;;2.10;;
29548;SDS011;16487;53.094;8.800;2023-08-06T13:59:41;1.80;;;1.70;;
29548;SDS011;16487;53.094;8.800;2023-08-06T14:02:08;1.67;;;1.57;;
29548;SDS011;16487;53.094;8.800;2023-08-06T14:04:36;3.17;;;1.70;;
29548;SDS011;16487;53.094;8.800;2023-08-06T14:07:03;1.77;;;1.67;;
29548;SDS011;16487;53.094;8.800;2023-08-06T14:09:30;2.27;;;2.10;;
29548;SDS011;16487;53.094;8.800;2023-08-06T14:11:58;2.17;;;2.07;;
29548;SDS011;16487;53.094;8.800;2023-08-06T14:14:25;2.20;;;2.10;;
29548;SDS011;16487;53.094;8.800;2023-08-06T14:16:54;1.87;;;1.77;;
29548;SDS011;16487;53.094;8.800;2023-08-06T14:19:22;2.53;;;1.93;;
29548;SDS011;16487;53.094;8.800;2023-08-06T14:21:49;2.77;;;2.00;;
29548;SDS011;16487;53.094;8.800;2023-08-06T14:24:18;1.93;;;1.83;;
29548;SDS011;16487;53.094;8.800;2023-08-06T14:26:45;2.20;;;2.10;;
29548;SDS011;16487;53.094;8.800;2023-08-06T14:29:12;2.13;;;2.00;;
29548;SDS011;16487;53.094;8.800;2023-08-06T14:31:39;2.30;;;2.17;;
29548;SDS011;16487;53.094;8.800;2023-08-06T14:34:08;2.27;;;2.17;;
29548;SDS011;16487;53.094;8.800;2023-08-06T14:36:35;4.93;;;3.17;;
29548;SDS011;16487;53.094;8.800;2023-08-06T14:39:02;10.07;;;8.07;;
29548;SDS011;16487;53.094;8.800;2023-08-06T14:41:29;2.27;;;2.17;;
29548;SDS011;16487;53.094;8.800;2023-08-06T14:43:56;1.90;;;1.80;;
29548;SDS011;16487;53.094;8.800;2023-08-06T14:46:24;1.80;;;1.70;;
29548;SDS011;16487;53.094;8.800;2023-08-06T14:48:52;1.57;;;1.47;;
29548;SDS011;16487;53.094;8.800;2023-08-06T14:51:20;1.60;;;1.50;;
29548;SDS011;16487;53.094;8.800;2023-08-06T14:53:48;2.07;;;1.97;;
29548;SDS011;16487;53.094;8.800;2023-08-06T14:56:15;2.00;;;1.90;;
29548;SDS011;16487;53.094;8.800;2023-08-06T14:58:43;2.10;;;1.90;;
29548;SDS011;16487;53.094;8.800;2023-08-06T15:01:10;1.97;;;1.87;;
29548;SDS011;16487;53.094;8.800;2023-08-06T15:03:37;2.03;;;1.83;;
29548;SDS011;16487;53.094;8.800;2023-08-06T15:06:05;2.33;;;2.23;;